sensor_id;sensor_type;location;lat;lon;timestamp;noise_LAeq;noise_LA_min;noise_LA_max;noise_LA01;noise_LA95
66459;Laerm;70605;52.550;4.730;2023-07-13T00:00:03;44.98;43.01;53.83;;
66459;Laerm;70605;52.550;4.730;2023-07-13T00:00:18;45.30;42.48;55.30;;
66459;Laerm;70605;52.550;4.730;2023-07-13T00:00:28;46.40;42.62;60.63;;
66459;Laerm;70605;52.550;4.730;2023-07-13T00:00:39;43.45;42.55;45.09;;
66459;Laerm;70605;52.550;4.730;2023-07-13T00:00:49;45.74;42.73;58.22;;
66459;Laerm;70605;52.550;4.730;2023-07-13T00:01:00;44.72;42.76;56.66;;
66459;Laerm;70605;52.550;4.730;2023-07-13T00:01:10;43.62;42.60;47.76;;
66459;Laerm;70605;52.550;4.730;2023-07-13T00:01:21;43.78;42.52;50.23;;
66459;Laerm;70605;52.550;4.730;2023-07-13T00:01:32;44.54;42.74;52.73;;
66459;Laerm;70605;52.550;4.730;2023-07-13T00:01:42;48.74;43.11;60.05;;
66459;Laerm;70605;52.550;4.730;2023-07-13T00:01:53;44.18;42.85;49.30;;
66459;Laerm;70605;52.550;4.730;2023-07-13T00:02:03;44.07;43.15;46.12;;
66459;Laerm;70605;52.550;4.730;2023-07-13T00:02:13;45.66;42.72;60.56;;
66459;Laerm;70605;52.550;4.730;2023-07-13T00:02:24;43.77;42.89;49.22;;
66459;Laerm;70605;52.550;4.730;2023-07-13T00:02:35;44.04;42.77;53.02;;
66459;Laerm;70605;52.550;4.730;2023-07-13T00:02:45;44.05;42.75;46.10;;
66459;Laerm;70605;52.550;4.730;2023-07-13T00:02:55;44.34;42.84;48.14;;
66459;Laerm;70605;52.550;4.730;2023-07-13T00:03:06;47.00;42.95;58.11;;
66459;Laerm;70605;52.550;4.730;2023-07-13T00:03:16;43.89;42.91;50.97;;
66459;Laerm;70605;52.550;4.730;2023-07-13T00:03:27;43.58;42.44;44.49;;
66459;Laerm;70605;52.550;4.730;2023-07-13T00:03:37;43.50;42.52;44.42;;
66459;Laerm;70605;52.550;4.730;2023-07-13T00:03:47;43.44;42.60;44.18;;
66459;Laerm;70605;52.550;4.730;2023-07-13T00:03:57;43.57;42.36;44.60;;
66459;Laerm;70605;52.550;4.730;2023-07-13T00:04:08;43.64;42.84;45.12;;
66459;Laerm;70605;52.550;4.730;2023-07-13T00:04:19;43.98;42.65;52.59;;
66459;Laerm;70605;52.550;4.730;2023-07-13T00:04:30;43.90;42.58;47.47;;
66459;Laerm;70605;52.550;4.730;2023-07-13T00:04:41;43.64;42.81;44.63;;
66459;Laerm;70605;52.550;4.730;2023-07-13T00:04:51;44.19;42.63;52.34;;
66459;Laerm;70605;52.550;4.730;2023-07-13T00:05:02;44.20;42.73;52.49;;
66459;Laerm;70605;52.550;4.730;2023-07-13T00:05:13;44.12;42.84;50.38;;
66459;Laerm;70605;52.550;4.730;2023-07-13T00:05:23;43.69;42.81;44.98;;
66459;Laerm;70605;52.550;4.730;2023-07-13T00:05:33;44.03;42.97;47.16;;
66459;Laerm;70605;52.550;4.730;2023-07-13T00:05:44;46.93;43.79;60.73;;
66459;Laerm;70605;52.550;4.730;2023-07-13T00:05:57;50.74;44.22;59.33;;
66459;Laerm;70605;52.550;4.730;2023-07-13T00:06:08;57.51;49.64;64.36;;
66459;Laerm;70605;52.550;4.730;2023-07-13T00:06:19;51.76;44.60;58.82;;
66459;Laerm;70605;52.550;4.730;2023-07-13T00:06:30;47.92;44.57;52.93;;
66459;Laerm;70605;52.550;4.730;2023-07-13T00:06:43;45.31;43.49;49.12;;
66459;Laerm;70605;52.550;4.730;2023-07-13T00:06:54;44.93;43.35;48.05;;
66459;Laerm;70605;52.550;4.730;2023-07-13T00:07:05;44.18;42.95;45.60;;
66459;Laerm;70605;52.550;4.730;2023-07-13T00:07:15;44.30;42.90;49.26;;
66459;Laerm;70605;52.550;4.730;2023-07-13T00:07:29;44.10;43.00;49.78;;
66459;Laerm;70605;52.550;4.730;2023-07-13T00:07:41;45.06;43.14;53.74;;
66459;Laerm;70605;52.550;4.730;2023-07-13T00:07:51;47.64;43.06;61.22;;
66459;Laerm;70605;52.550;4.730;2023-07-13T00:08:02;44.47;43.10;49.54;;
66459;Laerm;70605;52.550;4.730;2023-07-13T00:08:12;44.51;42.95;53.18;;
66459;Laerm;70605;52.550;4.730;2023-07-13T00:08:22;44.40;42.90;52.05;;
66459;Laerm;70605;52.550;4.730;2023-07-13T00:08:33;44.01;42.73;49.07;;
66459;Laerm;70605;52.550;4.730;2023-07-13T00:08:43;46.66;43.06;58.69;;
66459;Laerm;70605;52.550;4.730;2023-07-13T00:08:54;44.17;43.00;48.08;;
66459;Laerm;70605;52.550;4.730;2023-07-13T00:09:04;44.45;43.14;52.42;;
66459;Laerm;70605;52.550;4.730;2023-07-13T00:09:15;44.07;43.01;45.52;;
66459;Laerm;70605;52.550;4.730;2023-07-13T00:09:26;43.89;42.65;49.84;;
66459;Laerm;70605;52.550;4.730;2023-07-13T00:09:37;43.66;42.63;44.75;;
66459;Laerm;70605;52.550;4.730;2023-07-13T00:09:47;43.99;42.84;47.91;;
66459;Laerm;70605;52.550;4.730;2023-07-13T00:09:58;46.09;43.10;57.00;;
66459;Laerm;70605;52.550;4.730;2023-07-13T00:10:09;55.31;46.52;63.03;;
66459;Laerm;70605;52.550;4.730;2023-07-13T00:10:20;54.88;47.20;64.34;;
66459;Laerm;70605;52.550;4.730;2023-07-13T00:10:30;50.94;43.87;56.79;;
66459;Laerm;70605;52.550;4.730;2023-07-13T00:10:41;45.63;43.29;48.21;;
66459;Laerm;70605;52.550;4.730;2023-07-13T00:10:52;44.22;43.28;46.31;;
66459;Laerm;70605;52.550;4.730;2023-07-13T00:11:04;43.81;42.72;44.63;;
66459;Laerm;70605;52.550;4.730;2023-07-13T00:11:15;44.68;42.86;55.02;;
66459;Laerm;70605;52.550;4.730;2023-07-13T00:11:26;43.88;42.57;46.97;;
66459;Laerm;70605;52.550;4.730;2023-07-13T00:11:37;44.21;43.09;47.56;;
66459;Laerm;70605;52.550;4.730;2023-07-13T00:11:50;44.65;43.11;46.77;;
66459;Laerm;70605;52.550;4.730;2023-07-13T00:12:00;46.64;42.99;57.82;;
66459;Laerm;70605;52.550;4.730;2023-07-13T00:12:27;56.18;43.56;70.25;;
66459;Laerm;70605;52.550;4.730;2023-07-13T00:12:38;47.92;42.48;64.87;;
66459;Laerm;70605;52.550;4.730;2023-07-13T00:12:49;48.12;42.76;59.82;;
66459;Laerm;70605;52.550;4.730;2023-07-13T00:12:59;47.86;42.99;62.65;;
66459;Laerm;70605;52.550;4.730;2023-07-13T00:13:09;43.74;42.34;49.60;;
66459;Laerm;70605;52.550;4.730;2023-07-13T00:13:20;43.58;42.86;44.42;;
66459;Laerm;70605;52.550;4.730;2023-07-13T00:13:30;43.49;42.31;44.87;;
66459;Laerm;70605;52.550;4.730;2023-07-13T00:13:40;43.55;42.54;44.71;;
66459;Laerm;70605;52.550;4.730;2023-07-13T00:13:51;43.49;42.55;44.61;;
66459;Laerm;70605;52.550;4.730;2023-07-13T00:14:01;43.37;42.37;44.14;;
66459;Laerm;70605;52.550;4.730;2023-07-13T00:14:13;43.52;42.81;44.36;;
66459;Laerm;70605;52.550;4.730;2023-07-13T00:14:26;50.37;42.87;71.15;;
66459;Laerm;70605;52.550;4.730;2023-07-13T00:14:36;44.40;42.70;53.02;;
66459;Laerm;70605;52.550;4.730;2023-07-13T00:14:46;43.64;42.64;46.40;;
66459;Laerm;70605;52.550;4.730;2023-07-13T00:15:01;43.95;42.26;50.86;;
66459;Laerm;70605;52.550;4.730;2023-07-13T00:15:16;46.82;42.59;59.58;;
66459;Laerm;70605;52.550;4.730;2023-07-13T00:15:27;48.56;42.58;62.43;;
66459;Laerm;70605;52.550;4.730;2023-07-13T00:15:39;49.48;42.58;59.65;;
66459;Laerm;70605;52.550;4.730;2023-07-13T00:15:50;48.01;42.88;61.47;;
66459;Laerm;70605;52.550;4.730;2023-07-13T00:16:00;47.46;42.87;64.25;;
66459;Laerm;70605;52.550;4.730;2023-07-13T00:16:11;50.52;43.42;61.95;;
66459;Laerm;70605;52.550;4.730;2023-07-13T00:16:23;46.54;43.12;59.54;;
66459;Laerm;70605;52.550;4.730;2023-07-13T00:16:34;45.67;43.17;53.12;;
66459;Laerm;70605;52.550;4.730;2023-07-13T00:16:45;50.82;43.52;62.81;;
66459;Laerm;70605;52.550;4.730;2023-07-13T00:16:55;47.83;43.16;59.49;;
66459;Laerm;70605;52.550;4.730;2023-07-13T00:17:06;51.35;43.51;63.85;;
66459;Laerm;70605;52.550;4.730;2023-07-13T00:17:16;45.00;43.34;52.43;;
66459;Laerm;70605;52.550;4.730;2023-07-13T00:17:27;47.71;43.10;60.36;;
66459;Laerm;70605;52.550;4.730;2023-07-13T00:17:37;52.88;43.79;66.07;;
66459;Laerm;70605;52.550;4.730;2023-07-13T00:17:49;54.02;43.26;74.63;;
66459;Laerm;70605;52.550;4.730;2023-07-13T00:17:59;51.05;44.40;69.02;;
66459;Laerm;70605;52.550;4.730;2023-07-13T00:18:11;51.48;44.62;66.83;;
66459;Laerm;70605;52.550;4.730;2023-07-13T00:18:21;52.42;46.79;59.63;;
66459;Laerm;70605;52.550;4.730;2023-07-13T00:18:31;48.89;44.97;56.60;;
66459;Laerm;70605;52.550;4.730;2023-07-13T00:18:42;53.56;44.35;66.61;;
66459;Laerm;70605;52.550;4.730;2023-07-13T00:18:52;46.35;44.09;52.58;;
66459;Laerm;70605;52.550;4.730;2023-07-13T00:19:04;53.34;43.89;69.19;;
66459;Laerm;70605;52.550;4.730;2023-07-13T00:19:15;45.18;43.32;53.35;;
66459;Laerm;70605;52.550;4.730;2023-07-13T00:19:25;44.14;42.74;48.50;;
66459;Laerm;70605;52.550;4.730;2023-07-13T00:19:36;43.80;42.63;44.97;;
66459;Laerm;70605;52.550;4.730;2023-07-13T00:19:46;44.56;42.92;50.74;;
66459;Laerm;70605;52.550;4.730;2023-07-13T00:19:56;43.71;42.95;47.27;;
66459;Laerm;70605;52.550;4.730;2023-07-13T00:20:07;43.83;42.64;45.79;;
66459;Laerm;70605;52.550;4.730;2023-07-13T00:20:18;47.25;43.03;63.51;;
66459;Laerm;70605;52.550;4.730;2023-07-13T00:20:31;44.44;42.83;50.17;;
66459;Laerm;70605;52.550;4.730;2023-07-13T00:20:43;43.98;42.39;45.27;;
66459;Laerm;70605;52.550;4.730;2023-07-13T00:20:53;44.29;42.79;51.15;;
66459;Laerm;70605;52.550;4.730;2023-07-13T00:21:03;44.12;42.80;51.58;;
66459;Laerm;70605;52.550;4.730;2023-07-13T00:21:17;43.93;42.91;47.37;;
66459;Laerm;70605;52.550;4.730;2023-07-13T00:21:27;47.40;42.79;60.72;;
66459;Laerm;70605;52.550;4.730;2023-07-13T00:21:38;43.68;42.62;44.90;;
66459;Laerm;70605;52.550;4.730;2023-07-13T00:21:48;43.96;42.73;46.73;;
66459;Laerm;70605;52.550;4.730;2023-07-13T00:21:59;43.90;43.02;44.98;;
66459;Laerm;70605;52.550;4.730;2023-07-13T00:22:09;43.83;42.89;45.69;;
66459;Laerm;70605;52.550;4.730;2023-07-13T00:22:19;44.10;42.48;49.79;;
66459;Laerm;70605;52.550;4.730;2023-07-13T00:22:30;50.16;42.87;62.51;;
66459;Laerm;70605;52.550;4.730;2023-07-13T00:22:40;53.30;43.16;65.86;;
66459;Laerm;70605;52.550;4.730;2023-07-13T00:22:51;44.98;42.65;58.18;;
66459;Laerm;70605;52.550;4.730;2023-07-13T00:23:03;47.42;43.09;59.97;;
66459;Laerm;70605;52.550;4.730;2023-07-13T00:23:13;44.19;43.00;50.13;;
66459;Laerm;70605;52.550;4.730;2023-07-13T00:23:24;45.34;42.46;58.80;;
66459;Laerm;70605;52.550;4.730;2023-07-13T00:23:35;43.91;42.85;45.82;;
66459;Laerm;70605;52.550;4.730;2023-07-13T00:23:45;45.94;42.65;60.13;;
66459;Laerm;70605;52.550;4.730;2023-07-13T00:23:56;43.71;42.71;48.19;;
66459;Laerm;70605;52.550;4.730;2023-07-13T00:24:06;49.99;42.82;62.35;;
66459;Laerm;70605;52.550;4.730;2023-07-13T00:24:17;48.46;42.80;57.62;;
66459;Laerm;70605;52.550;4.730;2023-07-13T00:24:33;47.04;42.74;61.01;;
66459;Laerm;70605;52.550;4.730;2023-07-13T00:24:44;44.97;42.89;53.30;;
66459;Laerm;70605;52.550;4.730;2023-07-13T00:24:54;43.68;42.83;45.70;;
66459;Laerm;70605;52.550;4.730;2023-07-13T00:25:10;44.33;43.02;47.76;;
66459;Laerm;70605;52.550;4.730;2023-07-13T00:25:21;44.21;42.89;48.78;;
66459;Laerm;70605;52.550;4.730;2023-07-13T00:25:34;43.89;42.73;49.84;;
66459;Laerm;70605;52.550;4.730;2023-07-13T00:25:45;43.54;42.43;46.57;;
66459;Laerm;70605;52.550;4.730;2023-07-13T00:25:55;43.81;42.72;48.86;;
66459;Laerm;70605;52.550;4.730;2023-07-13T00:26:07;45.36;42.88;55.63;;
66459;Laerm;70605;52.550;4.730;2023-07-13T00:26:18;44.49;43.13;49.37;;
66459;Laerm;70605;52.550;4.730;2023-07-13T00:26:28;43.90;42.91;45.05;;
66459;Laerm;70605;52.550;4.730;2023-07-13T00:26:39;46.97;42.83;60.51;;
66459;Laerm;70605;52.550;4.730;2023-07-13T00:26:49;44.19;42.87;49.20;;
66459;Laerm;70605;52.550;4.730;2023-07-13T00:27:00;44.38;42.73;49.89;;
66459;Laerm;70605;52.550;4.730;2023-07-13T00:27:10;43.58;42.65;44.46;;
66459;Laerm;70605;52.550;4.730;2023-07-13T00:27:20;43.64;42.50;47.46;;
66459;Laerm;70605;52.550;4.730;2023-07-13T00:27:30;43.66;42.40;47.90;;
66459;Laerm;70605;52.550;4.730;2023-07-13T00:27:42;43.69;42.74;46.43;;
66459;Laerm;70605;52.550;4.730;2023-07-13T00:27:52;43.57;42.59;44.60;;
66459;Laerm;70605;52.550;4.730;2023-07-13T00:28:03;43.61;42.61;44.60;;
66459;Laerm;70605;52.550;4.730;2023-07-13T00:28:13;43.78;42.82;44.82;;
66459;Laerm;70605;52.550;4.730;2023-07-13T00:28:23;43.89;42.83;45.19;;
66459;Laerm;70605;52.550;4.730;2023-07-13T00:28:34;43.89;42.82;45.33;;
66459;Laerm;70605;52.550;4.730;2023-07-13T00:28:44;44.19;42.88;45.72;;
66459;Laerm;70605;52.550;4.730;2023-07-13T00:28:54;43.90;42.96;47.12;;
66459;Laerm;70605;52.550;4.730;2023-07-13T00:29:04;44.09;43.07;45.20;;
66459;Laerm;70605;52.550;4.730;2023-07-13T00:29:18;44.51;43.03;52.73;;
66459;Laerm;70605;52.550;4.730;2023-07-13T00:29:28;43.76;42.80;44.85;;
66459;Laerm;70605;52.550;4.730;2023-07-13T00:29:39;44.93;43.08;57.76;;
66459;Laerm;70605;52.550;4.730;2023-07-13T00:29:49;46.40;43.55;53.15;;
66459;Laerm;70605;52.550;4.730;2023-07-13T00:30:00;47.54;44.20;53.69;;
66459;Laerm;70605;52.550;4.730;2023-07-13T00:30:10;56.39;46.93;66.25;;
66459;Laerm;70605;52.550;4.730;2023-07-13T00:30:21;56.97;49.22;62.32;;
66459;Laerm;70605;52.550;4.730;2023-07-13T00:30:31;50.91;45.13;56.79;;
66459;Laerm;70605;52.550;4.730;2023-07-13T00:30:42;46.93;42.93;57.22;;
66459;Laerm;70605;52.550;4.730;2023-07-13T00:30:52;44.34;42.98;47.63;;
66459;Laerm;70605;52.550;4.730;2023-07-13T00:31:02;44.12;42.83;51.90;;
66459;Laerm;70605;52.550;4.730;2023-07-13T00:31:13;43.90;42.73;50.16;;
66459;Laerm;70605;52.550;4.730;2023-07-13T00:31:24;43.62;42.68;45.59;;
66459;Laerm;70605;52.550;4.730;2023-07-13T00:31:35;43.81;42.78;48.48;;
66459;Laerm;70605;52.550;4.730;2023-07-13T00:31:45;43.89;42.82;47.69;;
66459;Laerm;70605;52.550;4.730;2023-07-13T00:31:56;43.77;42.81;44.52;;
66459;Laerm;70605;52.550;4.730;2023-07-13T00:32:07;46.03;42.80;59.51;;
66459;Laerm;70605;52.550;4.730;2023-07-13T00:32:19;43.72;42.50;47.04;;
66459;Laerm;70605;52.550;4.730;2023-07-13T00:32:29;44.54;42.84;51.19;;
66459;Laerm;70605;52.550;4.730;2023-07-13T00:32:40;45.58;42.73;57.21;;
66459;Laerm;70605;52.550;4.730;2023-07-13T00:32:51;46.71;42.93;56.62;;
66459;Laerm;70605;52.550;4.730;2023-07-13T00:33:01;44.69;42.89;54.71;;
66459;Laerm;70605;52.550;4.730;2023-07-13T00:33:11;43.86;42.86;50.78;;
66459;Laerm;70605;52.550;4.730;2023-07-13T00:33:22;44.73;42.70;55.09;;
66459;Laerm;70605;52.550;4.730;2023-07-13T00:33:32;43.56;42.26;44.40;;
66459;Laerm;70605;52.550;4.730;2023-07-13T00:33:43;43.84;42.57;50.33;;
66459;Laerm;70605;52.550;4.730;2023-07-13T00:33:53;44.01;42.44;49.76;;
66459;Laerm;70605;52.550;4.730;2023-07-13T00:34:04;44.11;42.78;49.46;;
66459;Laerm;70605;52.550;4.730;2023-07-13T00:34:14;43.80;42.72;52.15;;
66459;Laerm;70605;52.550;4.730;2023-07-13T00:34:24;43.94;42.54;46.52;;
66459;Laerm;70605;52.550;4.730;2023-07-13T00:34:34;43.68;42.60;45.05;;
66459;Laerm;70605;52.550;4.730;2023-07-13T00:34:45;43.98;42.71;45.79;;
66459;Laerm;70605;52.550;4.730;2023-07-13T00:34:55;43.89;42.91;45.17;;
66459;Laerm;70605;52.550;4.730;2023-07-13T00:35:06;43.89;42.73;45.99;;
66459;Laerm;70605;52.550;4.730;2023-07-13T00:35:17;47.41;42.82;60.62;;
66459;Laerm;70605;52.550;4.730;2023-07-13T00:35:29;43.76;42.95;46.48;;
66459;Laerm;70605;52.550;4.730;2023-07-13T00:35:40;44.52;43.15;48.93;;
66459;Laerm;70605;52.550;4.730;2023-07-13T00:35:54;43.92;42.54;49.76;;
66459;Laerm;70605;52.550;4.730;2023-07-13T00:36:04;43.77;42.62;50.37;;
66459;Laerm;70605;52.550;4.730;2023-07-13T00:36:15;43.68;42.77;44.85;;
66459;Laerm;70605;52.550;4.730;2023-07-13T00:36:25;43.79;42.83;47.28;;
66459;Laerm;70605;52.550;4.730;2023-07-13T00:36:36;46.39;42.73;56.24;;
66459;Laerm;70605;52.550;4.730;2023-07-13T00:36:46;43.67;42.70;46.22;;
66459;Laerm;70605;52.550;4.730;2023-07-13T00:36:56;43.65;42.57;44.66;;
66459;Laerm;70605;52.550;4.730;2023-07-13T00:37:07;44.03;42.99;45.86;;
66459;Laerm;70605;52.550;4.730;2023-07-13T00:37:17;44.18;43.02;49.64;;
66459;Laerm;70605;52.550;4.730;2023-07-13T00:37:28;44.09;42.80;49.67;;
66459;Laerm;70605;52.550;4.730;2023-07-13T00:37:38;45.47;43.31;53.59;;
66459;Laerm;70605;52.550;4.730;2023-07-13T00:37:48;43.84;43.01;44.84;;
66459;Laerm;70605;52.550;4.730;2023-07-13T00:37:59;43.69;42.82;45.00;;
66459;Laerm;70605;52.550;4.730;2023-07-13T00:38:09;43.66;42.66;44.78;;
66459;Laerm;70605;52.550;4.730;2023-07-13T00:38:20;43.72;42.64;45.20;;
66459;Laerm;70605;52.550;4.730;2023-07-13T00:38:30;43.68;42.67;46.96;;
66459;Laerm;70605;52.550;4.730;2023-07-13T00:38:41;43.72;42.12;44.66;;
66459;Laerm;70605;52.550;4.730;2023-07-13T00:38:51;43.78;42.31;48.60;;
66459;Laerm;70605;52.550;4.730;2023-07-13T00:39:02;43.59;42.67;44.70;;
66459;Laerm;70605;52.550;4.730;2023-07-13T00:39:13;43.62;42.66;46.05;;
66459;Laerm;70605;52.550;4.730;2023-07-13T00:39:24;43.66;42.32;47.57;;
66459;Laerm;70605;52.550;4.730;2023-07-13T00:39:34;43.44;42.61;45.75;;
66459;Laerm;70605;52.550;4.730;2023-07-13T00:39:45;43.65;42.71;44.62;;
66459;Laerm;70605;52.550;4.730;2023-07-13T00:39:55;45.44;42.89;53.65;;
66459;Laerm;70605;52.550;4.730;2023-07-13T00:40:05;46.51;43.76;53.67;;
66459;Laerm;70605;52.550;4.730;2023-07-13T00:40:16;49.59;44.06;57.76;;
66459;Laerm;70605;52.550;4.730;2023-07-13T00:40:26;56.56;46.80;62.68;;
66459;Laerm;70605;52.550;4.730;2023-07-13T00:40:36;55.11;47.56;59.85;;
66459;Laerm;70605;52.550;4.730;2023-07-13T00:40:47;49.95;45.23;57.54;;
66459;Laerm;70605;52.550;4.730;2023-07-13T00:40:57;45.84;43.66;49.45;;
66459;Laerm;70605;52.550;4.730;2023-07-13T00:41:08;44.49;43.21;45.74;;
66459;Laerm;70605;52.550;4.730;2023-07-13T00:41:18;44.07;43.03;46.01;;
66459;Laerm;70605;52.550;4.730;2023-07-13T00:41:29;43.96;42.75;45.75;;
66459;Laerm;70605;52.550;4.730;2023-07-13T00:41:39;44.66;42.46;54.04;;
66459;Laerm;70605;52.550;4.730;2023-07-13T00:41:50;44.00;42.43;52.87;;
66459;Laerm;70605;52.550;4.730;2023-07-13T00:42:01;43.64;42.30;48.53;;
66459;Laerm;70605;52.550;4.730;2023-07-13T00:42:11;43.40;42.40;44.63;;
66459;Laerm;70605;52.550;4.730;2023-07-13T00:42:22;43.42;42.54;45.45;;
66459;Laerm;70605;52.550;4.730;2023-07-13T00:42:32;43.62;42.68;46.05;;
66459;Laerm;70605;52.550;4.730;2023-07-13T00:42:42;43.78;42.93;45.69;;
66459;Laerm;70605;52.550;4.730;2023-07-13T00:42:53;43.88;42.56;47.25;;
66459;Laerm;70605;52.550;4.730;2023-07-13T00:43:04;43.60;42.65;44.42;;
66459;Laerm;70605;52.550;4.730;2023-07-13T00:43:17;43.85;42.91;45.10;;
66459;Laerm;70605;52.550;4.730;2023-07-13T00:43:28;43.84;42.72;45.27;;
66459;Laerm;70605;52.550;4.730;2023-07-13T00:43:39;43.89;42.77;47.71;;
66459;Laerm;70605;52.550;4.730;2023-07-13T00:43:50;44.37;43.27;47.67;;
66459;Laerm;70605;52.550;4.730;2023-07-13T00:44:00;44.33;43.00;51.80;;
66459;Laerm;70605;52.550;4.730;2023-07-13T00:44:13;45.59;43.17;55.19;;
66459;Laerm;70605;52.550;4.730;2023-07-13T00:44:23;44.12;43.07;45.17;;
66459;Laerm;70605;52.550;4.730;2023-07-13T00:44:34;44.06;42.93;45.88;;
66459;Laerm;70605;52.550;4.730;2023-07-13T00:46:17;43.74;42.75;44.76;;
66459;Laerm;70605;52.550;4.730;2023-07-13T00:46:29;43.91;42.59;48.26;;
66459;Laerm;70605;52.550;4.730;2023-07-13T00:46:40;44.44;43.07;49.19;;
66459;Laerm;70605;52.550;4.730;2023-07-13T00:46:51;44.19;42.68;54.05;;
66459;Laerm;70605;52.550;4.730;2023-07-13T00:47:01;43.77;42.45;45.85;;
66459;Laerm;70605;52.550;4.730;2023-07-13T00:47:11;43.86;42.57;45.59;;
66459;Laerm;70605;52.550;4.730;2023-07-13T00:47:22;43.65;42.38;51.58;;
66459;Laerm;70605;52.550;4.730;2023-07-13T00:47:32;43.74;42.48;51.31;;
66459;Laerm;70605;52.550;4.730;2023-07-13T00:47:43;43.33;42.43;44.29;;
66459;Laerm;70605;52.550;4.730;2023-07-13T00:47:53;43.26;42.24;44.15;;
66459;Laerm;70605;52.550;4.730;2023-07-13T00:48:05;43.23;42.23;44.01;;
66459;Laerm;70605;52.550;4.730;2023-07-13T00:48:20;43.31;42.49;44.62;;
66459;Laerm;70605;52.550;4.730;2023-07-13T00:48:32;43.58;42.71;47.71;;
66459;Laerm;70605;52.550;4.730;2023-07-13T00:48:43;44.55;43.03;52.02;;
66459;Laerm;70605;52.550;4.730;2023-07-13T00:48:56;43.78;42.58;46.05;;
66459;Laerm;70605;52.550;4.730;2023-07-13T00:49:08;43.83;42.60;46.35;;
66459;Laerm;70605;52.550;4.730;2023-07-13T00:49:22;43.50;42.44;44.51;;
66459;Laerm;70605;52.550;4.730;2023-07-13T00:49:33;43.35;42.31;44.16;;
66459;Laerm;70605;52.550;4.730;2023-07-13T00:49:44;43.38;42.43;44.27;;
66459;Laerm;70605;52.550;4.730;2023-07-13T00:49:55;43.45;41.97;44.28;;
66459;Laerm;70605;52.550;4.730;2023-07-13T00:50:06;43.49;42.75;44.86;;
66459;Laerm;70605;52.550;4.730;2023-07-13T00:50:17;43.53;42.35;44.51;;
66459;Laerm;70605;52.550;4.730;2023-07-13T00:50:29;43.66;42.71;45.55;;
66459;Laerm;70605;52.550;4.730;2023-07-13T00:50:39;43.67;42.59;44.78;;
66459;Laerm;70605;52.550;4.730;2023-07-13T00:50:50;46.32;43.42;54.01;;
66459;Laerm;70605;52.550;4.730;2023-07-13T00:51:02;55.47;45.93;63.01;;
66459;Laerm;70605;52.550;4.730;2023-07-13T00:51:12;56.28;48.28;62.54;;
66459;Laerm;70605;52.550;4.730;2023-07-13T00:51:25;50.82;44.83;56.26;;
66459;Laerm;70605;52.550;4.730;2023-07-13T00:52:04;43.69;42.76;44.68;;
66459;Laerm;70605;52.550;4.730;2023-07-13T00:52:15;43.65;42.38;46.19;;
66459;Laerm;70605;52.550;4.730;2023-07-13T00:52:26;43.53;42.39;45.88;;
66459;Laerm;70605;52.550;4.730;2023-07-13T00:52:37;43.41;42.50;44.87;;
66459;Laerm;70605;52.550;4.730;2023-07-13T00:52:50;43.28;42.30;44.22;;
66459;Laerm;70605;52.550;4.730;2023-07-13T00:53:03;43.41;42.39;45.38;;
66459;Laerm;70605;52.550;4.730;2023-07-13T00:53:13;43.44;42.49;44.08;;
66459;Laerm;70605;52.550;4.730;2023-07-13T00:53:25;43.49;42.52;44.34;;
66459;Laerm;70605;52.550;4.730;2023-07-13T00:53:36;43.66;42.50;44.78;;
66459;Laerm;70605;52.550;4.730;2023-07-13T00:53:46;43.70;42.70;44.74;;
66459;Laerm;70605;52.550;4.730;2023-07-13T00:53:57;43.68;42.72;44.81;;
66459;Laerm;70605;52.550;4.730;2023-07-13T00:54:09;43.78;42.67;44.74;;
66459;Laerm;70605;52.550;4.730;2023-07-13T00:54:23;44.01;42.68;48.32;;
66459;Laerm;70605;52.550;4.730;2023-07-13T00:54:35;43.76;42.66;44.78;;
66459;Laerm;70605;52.550;4.730;2023-07-13T00:54:46;43.92;42.94;45.08;;
66459;Laerm;70605;52.550;4.730;2023-07-13T00:54:57;43.87;42.79;44.92;;
66459;Laerm;70605;52.550;4.730;2023-07-13T00:55:07;43.82;42.81;46.44;;
66459;Laerm;70605;52.550;4.730;2023-07-13T00:55:19;43.71;42.55;45.45;;
66459;Laerm;70605;52.550;4.730;2023-07-13T00:55:30;43.48;42.66;44.36;;
66459;Laerm;70605;52.550;4.730;2023-07-13T00:55:41;43.31;41.97;44.09;;
66459;Laerm;70605;52.550;4.730;2023-07-13T00:55:51;43.42;42.41;44.48;;
66459;Laerm;70605;52.550;4.730;2023-07-13T00:56:03;43.47;42.47;44.39;;
66459;Laerm;70605;52.550;4.730;2023-07-13T00:56:14;43.50;42.71;44.86;;
66459;Laerm;70605;52.550;4.730;2023-07-13T00:56:24;43.87;42.72;51.17;;
66459;Laerm;70605;52.550;4.730;2023-07-13T00:56:35;43.75;42.75;45.02;;
66459;Laerm;70605;52.550;4.730;2023-07-13T00:56:47;43.74;42.77;45.05;;
66459;Laerm;70605;52.550;4.730;2023-07-13T00:56:59;43.77;42.59;46.44;;
66459;Laerm;70605;52.550;4.730;2023-07-13T00:57:11;43.61;42.63;44.64;;
66459;Laerm;70605;52.550;4.730;2023-07-13T00:57:22;43.58;42.58;44.59;;
66459;Laerm;70605;52.550;4.730;2023-07-13T00:57:33;43.56;42.58;44.55;;
66459;Laerm;70605;52.550;4.730;2023-07-13T00:57:43;43.75;42.72;44.88;;
66459;Laerm;70605;52.550;4.730;2023-07-13T00:57:54;43.71;42.45;44.86;;
66459;Laerm;70605;52.550;4.730;2023-07-13T00:58:04;44.54;42.83;48.26;;
66459;Laerm;70605;52.550;4.730;2023-07-13T00:58:16;49.29;44.26;56.12;;
66459;Laerm;70605;52.550;4.730;2023-07-13T00:58:27;57.70;48.86;65.07;;
66459;Laerm;70605;52.550;4.730;2023-07-13T00:58:38;61.99;53.32;70.81;;
66459;Laerm;70605;52.550;4.730;2023-07-13T00:58:48;55.73;47.60;60.44;;
66459;Laerm;70605;52.550;4.730;2023-07-13T00:59:00;48.84;44.82;56.47;;
66459;Laerm;70605;52.550;4.730;2023-07-13T00:59:12;47.14;43.04;54.82;;
66459;Laerm;70605;52.550;4.730;2023-07-13T00:59:23;44.25;43.28;45.55;;
66459;Laerm;70605;52.550;4.730;2023-07-13T00:59:34;44.36;43.04;47.42;;
66459;Laerm;70605;52.550;4.730;2023-07-13T00:59:47;43.76;42.88;44.75;;
66459;Laerm;70605;52.550;4.730;2023-07-13T01:00:00;43.96;43.08;45.19;;
66459;Laerm;70605;52.550;4.730;2023-07-13T01:00:16;44.10;42.70;48.99;;
66459;Laerm;70605;52.550;4.730;2023-07-13T01:00:27;43.72;42.59;50.16;;
66459;Laerm;70605;52.550;4.730;2023-07-13T01:00:39;43.90;42.87;51.65;;
66459;Laerm;70605;52.550;4.730;2023-07-13T01:00:50;43.49;42.42;44.20;;
66459;Laerm;70605;52.550;4.730;2023-07-13T01:01:01;43.77;42.84;45.03;;
66459;Laerm;70605;52.550;4.730;2023-07-13T01:01:11;43.54;42.69;44.34;;
66459;Laerm;70605;52.550;4.730;2023-07-13T01:01:23;43.54;42.47;44.55;;
66459;Laerm;70605;52.550;4.730;2023-07-13T01:01:33;44.63;42.74;53.43;;
66459;Laerm;70605;52.550;4.730;2023-07-13T01:01:43;45.48;43.50;54.38;;
66459;Laerm;70605;52.550;4.730;2023-07-13T01:01:54;46.20;43.12;51.97;;
66459;Laerm;70605;52.550;4.730;2023-07-13T01:02:04;53.84;45.33;63.20;;
66459;Laerm;70605;52.550;4.730;2023-07-13T01:02:15;59.41;51.13;67.93;;
66459;Laerm;70605;52.550;4.730;2023-07-13T01:02:27;51.89;45.09;61.18;;
66459;Laerm;70605;52.550;4.730;2023-07-13T01:02:39;45.62;43.39;50.48;;
66459;Laerm;70605;52.550;4.730;2023-07-13T01:02:50;44.33;42.86;45.99;;
66459;Laerm;70605;52.550;4.730;2023-07-13T01:03:00;44.11;42.75;46.62;;
66459;Laerm;70605;52.550;4.730;2023-07-13T01:03:14;43.51;42.56;44.35;;
66459;Laerm;70605;52.550;4.730;2023-07-13T01:03:24;43.37;42.47;44.30;;
66459;Laerm;70605;52.550;4.730;2023-07-13T01:03:35;43.41;42.48;44.06;;